createdAt,value
2023-02-04T00:00:13.426Z,4.67
2023-02-04T00:02:41.347Z,3.37
2023-02-04T00:05:09.706Z,2.13
2023-02-04T00:07:37.283Z,3.13
2023-02-04T00:10:05.501Z,4.77
2023-02-04T00:12:33.908Z,2.67
2023-02-04T00:15:01.579Z,2.17
2023-02-04T00:17:29.143Z,2.60
2023-02-04T00:19:56.669Z,2.53
2023-02-04T00:22:24.204Z,2.47
2023-02-04T00:24:51.655Z,4.13
2023-02-04T00:27:19.140Z,2.93
2023-02-04T00:29:46.567Z,1.50
2023-02-04T00:32:14.444Z,2.30
2023-02-04T00:34:42.021Z,4.03
2023-02-04T00:37:09.516Z,2.70
2023-02-04T00:39:38.667Z,1.27
2023-02-04T00:42:07.039Z,2.47
2023-02-04T00:44:36.726Z,3.87
2023-02-04T00:47:04.516Z,3.80
2023-02-04T00:49:31.942Z,4.13
2023-02-04T00:51:59.410Z,2.93
2023-02-04T00:54:27.101Z,3.03
2023-02-04T00:56:54.647Z,2.83
2023-02-04T00:59:22.989Z,4.40
2023-02-04T01:01:51.780Z,2.20
2023-02-04T01:04:19.295Z,3.57
2023-02-04T01:06:46.732Z,4.87
2023-02-04T01:09:14.136Z,3.00
2023-02-04T01:11:43.009Z,2.10
2023-02-04T01:14:10.633Z,2.83
2023-02-04T01:16:39.971Z,4.17
2023-02-04T01:19:07.441Z,2.10
2023-02-04T01:21:35.005Z,2.57
2023-02-04T01:24:02.423Z,2.70
2023-02-04T01:26:29.915Z,3.17
2023-02-04T01:28:57.370Z,2.67
2023-02-04T01:31:25.613Z,2.83
2023-02-04T01:33:53.107Z,3.50
2023-02-04T01:36:21.957Z,2.27
2023-02-04T01:38:49.852Z,2.67
2023-02-04T01:41:18.612Z,6.23
2023-02-04T01:43:49.090Z,3.00
2023-02-04T01:46:17.350Z,2.10
2023-02-04T01:48:44.937Z,3.13
2023-02-04T01:51:13.443Z,2.90
2023-02-04T01:53:41.859Z,1.90
2023-02-04T01:56:20.361Z,4.57
2023-02-04T01:58:48.757Z,5.17
2023-02-04T02:01:17.523Z,4.07
2023-02-04T02:03:45.106Z,3.37
2023-02-04T02:06:12.559Z,2.67
2023-02-04T02:08:40.088Z,2.53
2023-02-04T02:11:07.595Z,4.67
2023-02-04T02:13:35.077Z,5.57
2023-02-04T02:16:02.493Z,2.97
2023-02-04T02:18:29.949Z,4.27
2023-02-04T02:20:58.667Z,3.93
2023-02-04T02:23:30.205Z,2.63
2023-02-04T02:25:58.409Z,3.07
2023-02-04T02:28:25.807Z,2.70
2023-02-04T02:30:53.498Z,2.97
2023-02-04T02:33:21.810Z,3.87
2023-02-04T02:35:50.616Z,5.30
2023-02-04T02:38:19.196Z,1.57
2023-02-04T02:40:47.003Z,2.70
2023-02-04T02:43:19.288Z,2.90
2023-02-04T02:45:46.841Z,4.83
2023-02-04T02:48:14.373Z,4.00
2023-02-04T02:50:42.765Z,4.37
2023-02-04T02:53:13.840Z,4.93
2023-02-04T02:55:43.003Z,3.27
2023-02-04T02:58:16.862Z,2.37
2023-02-04T03:00:44.793Z,3.63
2023-02-04T03:03:15.827Z,5.50
2023-02-04T03:05:45.052Z,3.93
2023-02-04T03:08:13.705Z,5.00
2023-02-04T03:10:41.584Z,3.07
2023-02-04T03:13:09.393Z,2.90
2023-02-04T03:15:37.121Z,4.33
2023-02-04T03:18:05.825Z,3.30
2023-02-04T03:20:33.687Z,5.13
2023-02-04T03:23:01.304Z,4.03
2023-02-04T03:25:29.330Z,3.23
2023-02-04T03:27:59.277Z,3.80
2023-02-04T03:30:26.943Z,4.27
2023-02-04T03:32:54.617Z,3.10
2023-02-04T03:35:22.182Z,3.97
2023-02-04T03:37:49.641Z,5.27
2023-02-04T03:40:19.626Z,3.93
2023-02-04T03:42:53.024Z,3.97
2023-02-04T03:45:20.519Z,2.60
2023-02-04T03:47:47.946Z,4.27
2023-02-04T03:50:15.683Z,8.43
2023-02-04T03:52:43.067Z,4.40
2023-02-04T03:55:10.516Z,3.97
2023-02-04T03:57:37.964Z,4.93
2023-02-04T04:00:05.627Z,3.50
2023-02-04T04:02:39.314Z,4.13
2023-02-04T04:05:07.507Z,2.50
2023-02-04T04:07:34.954Z,2.73
2023-02-04T04:10:02.442Z,4.43
2023-02-04T04:12:29.928Z,3.73
2023-02-04T04:14:57.360Z,4.23
2023-02-04T04:17:24.868Z,6.30
2023-02-04T04:19:52.406Z,6.97
2023-02-04T04:22:19.934Z,3.77
2023-02-04T04:24:47.517Z,3.27
2023-02-04T04:27:14.937Z,7.23
2023-02-04T04:29:42.405Z,4.90
2023-02-04T04:32:10.755Z,2.80
2023-02-04T04:34:38.360Z,2.97
2023-02-04T04:37:05.764Z,5.00
2023-02-04T04:39:33.240Z,3.27
2023-02-04T04:42:00.653Z,5.50
2023-02-04T04:44:28.092Z,3.90
2023-02-04T04:46:55.541Z,3.50
2023-02-04T04:49:23.113Z,4.80
2023-02-04T04:51:50.541Z,2.90
2023-02-04T04:54:18.044Z,7.63
2023-02-04T04:56:45.500Z,4.97
2023-02-04T04:59:13.020Z,3.23
2023-02-04T05:01:40.509Z,4.27
2023-02-04T05:04:07.991Z,3.43
2023-02-04T05:06:35.403Z,2.57
2023-02-04T05:09:02.847Z,3.10
2023-02-04T05:11:31.032Z,5.10
2023-02-04T05:13:58.576Z,2.83
2023-02-04T05:16:26.018Z,4.70
2023-02-04T05:18:53.568Z,3.50
2023-02-04T05:21:20.974Z,3.93
2023-02-04T05:23:48.465Z,5.40
2023-02-04T05:26:28.493Z,6.03
2023-02-04T05:28:57.640Z,3.00
2023-02-04T05:31:25.112Z,4.17
2023-02-04T05:33:52.702Z,4.67
2023-02-04T05:36:20.175Z,3.57
2023-02-04T05:38:47.666Z,2.20
2023-02-04T05:41:15.118Z,5.00
2023-02-04T05:43:43.202Z,4.13
2023-02-04T05:46:10.652Z,4.60
2023-02-04T05:48:40.129Z,2.50
2023-02-04T05:51:07.615Z,3.63
2023-02-04T05:53:35.034Z,3.37
2023-02-04T05:56:02.428Z,3.53
2023-02-04T05:58:33.569Z,2.33
2023-02-04T06:01:04.363Z,7.03
2023-02-04T06:03:32.892Z,4.67
2023-02-04T06:06:00.492Z,3.40
2023-02-04T06:08:27.934Z,6.33
2023-02-04T06:10:55.598Z,6.50
2023-02-04T06:13:23.009Z,4.73
2023-02-04T06:15:50.646Z,4.17
2023-02-04T06:18:18.173Z,7.03
2023-02-04T06:20:45.623Z,4.47
2023-02-04T06:23:13.091Z,2.30
2023-02-04T06:25:40.543Z,3.77
2023-02-04T06:28:08.015Z,4.70
2023-02-04T06:30:37.529Z,5.70
2023-02-04T06:33:04.984Z,4.80
2023-02-04T06:35:32.456Z,6.57
2023-02-04T06:37:59.898Z,3.37
2023-02-04T06:40:27.389Z,3.17
2023-02-04T06:42:54.810Z,6.77
2023-02-04T06:45:22.262Z,2.87
2023-02-04T06:47:49.700Z,3.10
2023-02-04T06:50:20.209Z,3.33
2023-02-04T06:52:48.223Z,4.67
2023-02-04T06:55:16.323Z,4.13
2023-02-04T06:57:44.049Z,4.57
2023-02-04T07:00:12.539Z,4.30
2023-02-04T07:02:40.114Z,5.30
2023-02-04T07:05:07.751Z,3.33
2023-02-04T07:07:35.467Z,2.47
2023-02-04T07:10:02.859Z,6.37
2023-02-04T07:12:30.299Z,4.30
2023-02-04T07:14:57.776Z,2.47
2023-02-04T07:17:25.273Z,6.57
2023-02-04T07:19:53.134Z,4.07
2023-02-04T07:22:20.609Z,2.83
2023-02-04T07:24:48.066Z,3.60
2023-02-04T07:27:15.597Z,4.23
2023-02-04T07:29:42.975Z,3.47
2023-02-04T07:32:10.496Z,4.27
2023-02-04T07:34:37.922Z,3.47
2023-02-04T07:37:05.483Z,5.53
2023-02-04T07:39:32.918Z,3.07
2023-02-04T07:42:00.622Z,5.43
2023-02-04T07:44:34.722Z,4.13
2023-02-04T07:47:02.244Z,3.30
2023-02-04T07:49:29.691Z,2.27
2023-02-04T07:51:58.008Z,2.80
2023-02-04T07:54:25.501Z,3.87
2023-02-04T07:56:53.090Z,6.57
2023-02-04T07:59:20.524Z,4.27
2023-02-04T08:01:49.930Z,7.53
2023-02-04T08:04:17.453Z,4.13
2023-02-04T08:06:44.903Z,4.87
2023-02-04T08:09:12.368Z,4.10
2023-02-04T08:11:39.856Z,3.70
2023-02-04T08:14:07.429Z,5.53
2023-02-04T08:16:34.987Z,6.07
2023-02-04T08:19:02.550Z,3.93
2023-02-04T08:21:30.248Z,6.33
2023-02-04T08:23:57.802Z,5.87
2023-02-04T08:26:25.604Z,6.23
2023-02-04T08:28:53.021Z,3.80
2023-02-04T08:31:20.814Z,6.20
2023-02-04T08:33:48.354Z,6.83
2023-02-04T08:36:15.821Z,3.23
2023-02-04T08:38:44.692Z,8.33
2023-02-04T08:41:12.491Z,4.83
2023-02-04T08:43:39.915Z,4.23
2023-02-04T08:46:07.626Z,10.90
2023-02-04T08:48:35.092Z,5.10
2023-02-04T08:51:02.733Z,7.83
2023-02-04T08:53:30.169Z,6.53
2023-02-04T08:55:57.903Z,6.83
2023-02-04T08:58:25.329Z,6.13
2023-02-04T09:01:03.066Z,6.17
2023-02-04T09:03:30.773Z,6.97
2023-02-04T09:05:58.216Z,6.03
2023-02-04T09:08:25.724Z,5.07
2023-02-04T09:10:53.150Z,5.40
2023-02-04T09:13:20.616Z,4.13
2023-02-04T09:15:48.131Z,9.30
2023-02-04T09:18:17.990Z,5.87
2023-02-04T09:20:46.009Z,7.27
2023-02-04T09:23:14.045Z,5.77
2023-02-04T09:25:42.600Z,4.00
2023-02-04T09:28:11.613Z,5.63
2023-02-04T09:30:39.895Z,7.37
2023-02-04T09:33:07.861Z,3.50
2023-02-04T09:35:35.395Z,5.73
2023-02-04T09:38:03.251Z,4.40
2023-02-04T09:40:34.767Z,6.37
2023-02-04T09:43:03.006Z,6.53
2023-02-04T09:45:31.619Z,4.47
2023-02-04T09:47:59.731Z,10.30
2023-02-04T09:50:28.111Z,8.43
2023-02-04T09:52:57.170Z,6.57
2023-02-04T09:55:27.904Z,8.53
2023-02-04T09:57:55.593Z,8.57
2023-02-04T10:00:24.601Z,7.93
2023-02-04T10:02:52.880Z,8.77
2023-02-04T10:05:22.863Z,7.77
2023-02-04T10:07:50.417Z,6.30
2023-02-04T10:10:19.144Z,8.23
2023-02-04T10:12:47.276Z,5.10
2023-02-04T10:15:22.147Z,5.53
2023-02-04T10:17:51.018Z,5.37
2023-02-04T10:20:20.012Z,5.53
2023-02-04T10:22:49.689Z,5.97
2023-02-04T10:25:18.821Z,6.20
2023-02-04T10:27:54.195Z,8.77
2023-02-04T10:30:26.553Z,5.60
2023-02-04T10:32:54.258Z,5.50
2023-02-04T10:35:22.469Z,4.93
2023-02-04T10:38:03.442Z,4.33
2023-02-04T10:40:35.285Z,4.93
2023-02-04T10:43:15.395Z,5.53
2023-02-04T10:45:56.169Z,5.07
2023-02-04T10:48:23.898Z,5.07
2023-02-04T10:50:51.337Z,4.93
2023-02-04T10:53:41.089Z,5.90
2023-02-04T10:56:16.761Z,5.73
2023-02-04T10:58:44.481Z,5.13
2023-02-04T11:01:12.512Z,3.97
2023-02-04T11:03:40.728Z,5.77
2023-02-04T11:06:21.320Z,8.70
2023-02-04T11:08:51.549Z,4.20
2023-02-04T11:11:26.359Z,4.80
2023-02-04T11:14:03.374Z,4.70
2023-02-04T11:16:33.079Z,5.03
2023-02-04T11:19:01.963Z,4.77
2023-02-04T11:21:41.670Z,5.43
2023-02-04T11:24:27.165Z,5.63
2023-02-04T11:27:06.570Z,8.20
2023-02-04T11:29:42.610Z,5.37
2023-02-04T11:32:28.607Z,5.97
2023-02-04T11:35:07.236Z,5.10
2023-02-04T11:37:39.598Z,6.97
2023-02-04T11:40:30.652Z,8.13
2023-02-04T11:43:03.231Z,4.67
2023-02-04T11:45:32.722Z,4.93
2023-02-04T11:48:02.345Z,7.10
2023-02-04T11:50:34.234Z,4.47
2023-02-04T11:53:02.767Z,4.07
2023-02-04T11:55:31.653Z,5.33
2023-02-04T11:57:59.404Z,3.90
2023-02-04T12:00:29.733Z,3.80
2023-02-04T12:02:59.319Z,3.60
2023-02-04T12:05:42.883Z,4.17
2023-02-04T12:08:11.892Z,4.33
2023-02-04T12:10:39.539Z,3.77
2023-02-04T12:13:14.622Z,4.53
2023-02-04T12:15:42.115Z,4.80
2023-02-04T12:18:16.682Z,4.50
2023-02-04T12:20:44.106Z,6.27
2023-02-04T12:23:11.536Z,4.93
2023-02-04T12:25:39.273Z,2.13
2023-02-04T12:28:06.755Z,2.70
2023-02-04T12:30:34.287Z,2.40
2023-02-04T12:33:01.904Z,2.67
2023-02-04T12:35:29.455Z,3.10
2023-02-04T12:37:57.976Z,3.20
2023-02-04T12:40:25.540Z,9.80
2023-02-04T12:42:53.034Z,4.47
2023-02-04T12:45:20.530Z,6.60
2023-02-04T12:47:48.243Z,4.37
2023-02-04T12:50:22.653Z,5.23
2023-02-04T12:52:51.250Z,3.47
2023-02-04T12:55:18.668Z,6.57
2023-02-04T12:57:46.300Z,3.23
2023-02-04T13:00:14.810Z,5.80
2023-02-04T13:02:42.367Z,4.60
2023-02-04T13:05:09.999Z,3.87
2023-02-04T13:07:37.764Z,6.13
2023-02-04T13:10:05.442Z,7.63
2023-02-04T13:12:32.890Z,4.13
2023-02-04T13:15:00.396Z,4.07
2023-02-04T13:17:27.961Z,6.70
2023-02-04T13:19:55.417Z,7.83
2023-02-04T13:22:22.971Z,9.20
2023-02-04T13:24:50.438Z,6.63
2023-02-04T13:27:17.958Z,7.13
2023-02-04T13:29:45.498Z,8.10
2023-02-04T13:32:13.066Z,8.00
2023-02-04T13:34:40.552Z,4.13
2023-02-04T13:37:08.441Z,4.60
2023-02-04T13:39:35.889Z,7.87
2023-02-04T13:42:04.574Z,6.53
2023-02-04T13:44:33.461Z,3.97
2023-02-04T13:47:00.977Z,4.77
2023-02-04T13:49:28.467Z,4.97
2023-02-04T13:51:56.134Z,8.97
2023-02-04T13:54:23.578Z,8.83
2023-02-04T13:56:51.072Z,4.57
2023-02-04T13:59:20.694Z,5.13
2023-02-04T14:01:48.423Z,5.80
2023-02-04T14:04:15.878Z,4.30
2023-02-04T14:06:46.349Z,4.63
2023-02-04T14:09:13.834Z,5.63
2023-02-04T14:11:41.467Z,5.57
2023-02-04T14:14:09.451Z,8.97
2023-02-04T14:16:37.971Z,6.17
2023-02-04T14:19:05.754Z,5.30
2023-02-04T14:21:33.320Z,6.20
2023-02-04T14:24:01.619Z,7.00
2023-02-04T14:26:29.151Z,5.83
2023-02-04T14:28:56.607Z,6.83
2023-02-04T14:31:24.274Z,7.37
2023-02-04T14:33:51.875Z,9.27
2023-02-04T14:36:19.395Z,6.63
2023-02-04T14:38:46.836Z,9.67
2023-02-04T14:41:17.452Z,8.80
2023-02-04T14:43:44.975Z,8.80
2023-02-04T14:46:12.461Z,13.83
2023-02-04T14:48:40.193Z,8.00
2023-02-04T14:51:07.588Z,5.50
2023-02-04T14:53:35.053Z,5.63
2023-02-04T14:56:02.701Z,8.77
2023-02-04T14:58:30.302Z,10.80
2023-02-04T15:00:57.732Z,6.33
2023-02-04T15:03:25.438Z,5.90
2023-02-04T15:05:52.906Z,6.63
2023-02-04T15:08:20.470Z,9.07
2023-02-04T15:10:47.974Z,8.37
2023-02-04T15:13:15.807Z,6.73
2023-02-04T15:15:43.254Z,8.20
2023-02-04T15:18:10.832Z,9.97
2023-02-04T15:20:38.232Z,8.17
2023-02-04T15:23:05.749Z,8.90
2023-02-04T15:25:33.214Z,13.80
2023-02-04T15:28:00.772Z,9.93
2023-02-04T15:30:28.294Z,12.83
2023-02-04T15:32:55.791Z,7.00
2023-02-04T15:35:23.193Z,5.73
2023-02-04T15:37:51.882Z,6.70
2023-02-04T15:40:19.503Z,6.70
2023-02-04T15:42:47.090Z,8.90
2023-02-04T15:45:14.498Z,10.30
2023-02-04T15:47:42.118Z,14.17
2023-02-04T15:50:11.103Z,8.30
2023-02-04T15:52:38.761Z,13.53
2023-02-04T15:55:06.419Z,7.63
2023-02-04T15:57:33.853Z,7.93
2023-02-04T16:00:01.409Z,11.63
2023-02-04T16:02:29.340Z,10.20
2023-02-04T16:04:56.809Z,7.17
2023-02-04T16:07:24.274Z,9.20
2023-02-04T16:09:51.709Z,10.07
2023-02-04T16:12:19.233Z,9.77
2023-02-04T16:14:46.663Z,12.93
2023-02-04T16:17:14.170Z,13.97
2023-02-04T16:19:41.580Z,9.83
2023-02-04T16:22:09.092Z,11.87
2023-02-04T16:24:36.899Z,46.27
2023-02-04T16:27:04.489Z,61.50
2023-02-04T16:29:31.958Z,32.03
2023-02-04T16:31:59.575Z,17.10
2023-02-04T16:34:27.094Z,12.80
2023-02-04T16:36:54.692Z,14.33
2023-02-04T16:39:22.137Z,14.50
2023-02-04T16:41:49.633Z,10.43
2023-02-04T16:44:17.056Z,8.00
2023-02-04T16:46:44.783Z,7.23
2023-02-04T16:49:12.348Z,9.57
2023-02-04T16:51:39.865Z,12.43
2023-02-04T16:54:07.389Z,15.40
2023-02-04T16:56:35.747Z,30.33
2023-02-04T16:59:03.611Z,18.63
2023-02-04T17:01:31.658Z,10.20
2023-02-04T17:03:59.153Z,10.17
2023-02-04T17:06:27.610Z,7.20
2023-02-04T17:08:55.423Z,9.73
2023-02-04T17:11:29.493Z,10.40
2023-02-04T17:13:57.680Z,10.60
2023-02-04T17:16:25.235Z,10.50
2023-02-04T17:18:53.090Z,9.30
2023-02-04T17:21:20.527Z,13.67
2023-02-04T17:23:48.249Z,21.03
2023-02-04T17:26:15.767Z,14.83
2023-02-04T17:28:43.455Z,8.47
2023-02-04T17:31:10.994Z,12.00
2023-02-04T17:33:38.602Z,9.07
2023-02-04T17:36:07.166Z,11.67
2023-02-04T17:38:35.222Z,9.07
2023-02-04T17:41:02.800Z,10.20
2023-02-04T17:43:30.985Z,8.93
2023-02-04T17:45:58.467Z,9.97
2023-02-04T17:48:26.019Z,9.33
2023-02-04T17:50:53.498Z,11.43
2023-02-04T17:53:21.044Z,12.97
2023-02-04T17:55:48.507Z,10.27
2023-02-04T17:58:27.101Z,12.30
2023-02-04T18:00:57.749Z,12.03
2023-02-04T18:03:29.530Z,10.10
2023-02-04T18:05:57.888Z,6.50
2023-02-04T18:08:28.071Z,7.23
2023-02-04T18:10:56.174Z,7.80
2023-02-04T18:13:41.907Z,7.53
2023-02-04T18:16:28.691Z,9.80
2023-02-04T18:18:57.369Z,9.03
2023-02-04T18:21:28.726Z,5.30
2023-02-04T18:24:19.477Z,9.47
2023-02-04T18:26:48.631Z,10.47
2023-02-04T18:29:33.272Z,12.47
2023-02-04T18:32:02.708Z,10.07
2023-02-04T18:34:38.087Z,10.27
2023-02-04T18:37:25.881Z,10.93
2023-02-04T18:39:54.573Z,8.30
2023-02-04T18:42:25.295Z,16.73
2023-02-04T18:44:55.059Z,8.87
2023-02-04T18:47:29.696Z,10.60
2023-02-04T18:49:57.278Z,12.13
2023-02-04T18:52:25.112Z,9.07
2023-02-04T18:54:54.068Z,6.93
2023-02-04T18:57:31.677Z,8.87
2023-02-04T19:00:32.953Z,8.53
2023-02-04T19:03:02.799Z,12.63
2023-02-04T19:05:34.505Z,9.90
2023-02-04T19:08:25.489Z,8.90
2023-02-04T19:10:54.163Z,10.43
2023-02-04T19:13:40.772Z,10.03
2023-02-04T19:16:37.850Z,14.00
2023-02-04T19:19:10.214Z,10.20
2023-02-04T19:21:37.709Z,16.10
2023-02-04T19:24:20.289Z,8.67
2023-02-04T19:26:51.703Z,8.93
2023-02-04T19:29:45.589Z,11.37
2023-02-04T19:32:27.522Z,12.27
2023-02-04T19:34:55.695Z,9.33
2023-02-04T19:37:27.697Z,13.10
2023-02-04T19:39:55.822Z,13.97
2023-02-04T19:42:32.459Z,14.33
2023-02-04T19:45:19.674Z,13.10
2023-02-04T19:47:47.192Z,8.77
2023-02-04T19:50:33.643Z,12.47
2023-02-04T19:53:12.029Z,13.57
2023-02-04T19:55:46.664Z,11.63
2023-02-04T19:58:24.657Z,14.40
2023-02-04T20:01:02.639Z,14.17
2023-02-04T20:03:37.633Z,15.47
2023-02-04T20:06:18.930Z,20.13
2023-02-04T20:09:06.631Z,17.90
2023-02-04T20:11:38.456Z,17.87
2023-02-04T20:14:31.693Z,14.17
2023-02-04T20:17:00.515Z,13.30
2023-02-04T20:19:37.936Z,12.33
2023-02-04T20:22:40.668Z,20.90
2023-02-04T20:25:40.732Z,15.50
2023-02-04T20:28:15.442Z,14.80
2023-02-04T20:30:43.056Z,18.77
2023-02-04T20:33:27.077Z,13.90
2023-02-04T20:36:14.476Z,16.00
2023-02-04T20:38:42.342Z,16.07
2023-02-04T20:41:20.712Z,16.13
2023-02-04T20:43:51.173Z,15.20
2023-02-04T20:46:23.134Z,14.23
2023-02-04T20:48:50.742Z,14.03
2023-02-04T20:51:27.147Z,15.53
2023-02-04T20:53:59.097Z,10.10
2023-02-04T20:56:28.737Z,12.53
2023-02-04T20:59:10.403Z,20.93
2023-02-04T21:01:45.531Z,18.57
2023-02-04T21:04:17.778Z,15.03
2023-02-04T21:06:45.344Z,15.03
2023-02-04T21:09:23.887Z,14.27
2023-02-04T21:11:52.377Z,16.47
2023-02-04T21:14:20.001Z,14.50
2023-02-04T21:16:47.626Z,18.27
2023-02-04T21:19:16.138Z,17.57
2023-02-04T21:21:43.633Z,16.37
2023-02-04T21:24:11.084Z,13.27
2023-02-04T21:26:38.610Z,15.77
2023-02-04T21:29:06.462Z,15.83
2023-02-04T21:31:34.370Z,14.47
2023-02-04T21:34:01.953Z,20.17
2023-02-04T21:36:29.499Z,19.47
2023-02-04T21:38:57.370Z,15.27
2023-02-04T21:41:25.167Z,15.73
2023-02-04T21:43:52.885Z,12.90
2023-02-04T21:46:20.897Z,20.80
2023-02-04T21:48:48.343Z,12.53
2023-02-04T21:51:16.093Z,19.50
2023-02-04T21:53:44.411Z,12.47
2023-02-04T21:56:11.980Z,16.47
2023-02-04T21:58:39.432Z,24.73
2023-02-04T22:01:07.094Z,21.53
2023-02-04T22:03:34.706Z,15.53
2023-02-04T22:06:02.209Z,13.60
2023-02-04T22:08:29.665Z,17.03
2023-02-04T22:10:57.152Z,16.20
2023-02-04T22:13:24.634Z,15.60
2023-02-04T22:15:52.166Z,15.30
2023-02-04T22:18:20.833Z,15.77
2023-02-04T22:20:48.329Z,15.67
2023-02-04T22:23:16.724Z,14.20
2023-02-04T22:25:44.167Z,14.87
2023-02-04T22:28:11.636Z,12.50
2023-02-04T22:30:39.235Z,13.77
2023-02-04T22:33:07.566Z,12.70
2023-02-04T22:35:36.874Z,14.57
2023-02-04T22:38:04.328Z,17.30
2023-02-04T22:40:32.086Z,17.00
2023-02-04T22:42:59.966Z,14.20
2023-02-04T22:45:27.406Z,13.40
2023-02-04T22:47:54.840Z,19.43
2023-02-04T22:50:22.315Z,17.67
2023-02-04T22:52:49.738Z,11.87
2023-02-04T22:55:17.286Z,16.47
2023-02-04T22:57:44.721Z,13.23
2023-02-04T23:00:12.775Z,16.83
2023-02-04T23:02:40.227Z,14.93
2023-02-04T23:05:07.765Z,15.77
2023-02-04T23:07:35.168Z,16.90
2023-02-04T23:10:02.664Z,13.17
2023-02-04T23:12:30.105Z,14.57
2023-02-04T23:14:57.576Z,15.73
2023-02-04T23:17:25.039Z,14.83
2023-02-04T23:19:52.511Z,12.90
2023-02-04T23:22:19.965Z,22.10
2023-02-04T23:24:49.623Z,12.60
2023-02-04T23:27:17.280Z,18.77
2023-02-04T23:29:44.753Z,14.93
2023-02-04T23:32:12.301Z,16.90
2023-02-04T23:34:39.797Z,14.67
2023-02-04T23:37:07.225Z,18.83
2023-02-04T23:39:34.908Z,14.23
2023-02-04T23:42:02.762Z,15.90
2023-02-04T23:44:30.252Z,12.33
2023-02-04T23:46:57.771Z,14.77
2023-02-04T23:49:25.242Z,20.13
2023-02-04T23:51:53.136Z,16.90
2023-02-04T23:54:20.615Z,19.57
2023-02-04T23:56:48.015Z,15.30
2023-02-04T23:59:15.541Z,18.03
